Time;durP1;ratioP1;P1;durP2;ratioP2;P2;SDS_P1;SDS_P2;PMS_P1;PMS_P2;Temp;Humidity;BMP_temperature;BMP_pressure;BME280_temperature;BME280_humidity;BME280_pressure;Samples;Min_cycle;Max_cycle;Signal;HPM_P1;HPM_P2
2024/01/13 00:00:57;;;;;;;20.48;14.30;;;3.00;99.90;;;;;;5072327;28;20857;-60
2024/01/13 00:03:23;;;;;;;19.70;13.40;;;3.00;99.90;;;;;;5073735;28;20412;-61
2024/01/13 00:05:49;;;;;;;19.75;14.30;;;3.00;99.90;;;;;;5082071;28;20412;-60
2024/01/13 00:08:15;;;;;;;24.42;15.80;;;3.00;99.90;;;;;;5052929;28;21088;-61
2024/01/13 00:10:40;;;;;;;22.73;16.13;;;3.00;99.90;;;;;;5055570;28;20407;-60
2024/01/13 00:13:08;;;;;;;20.95;14.55;;;2.90;99.90;;;;;;5068663;28;21042;-61
2024/01/13 00:15:34;;;;;;;19.00;14.60;;;2.90;99.90;;;;;;5075219;28;20407;-61
2024/01/13 00:18:00;;;;;;;20.80;14.73;;;2.90;99.90;;;;;;5072595;28;20473;-60
2024/01/13 00:20:25;;;;;;;21.08;14.38;;;2.90;99.90;;;;;;5071570;28;20506;-62
2024/01/13 00:22:51;;;;;;;18.43;13.83;;;2.90;99.90;;;;;;5069878;28;20396;-61
2024/01/13 00:25:17;;;;;;;19.60;13.97;;;2.90;99.90;;;;;;5076585;28;20394;-61
2024/01/13 00:27:42;;;;;;;21.58;14.98;;;2.90;99.90;;;;;;5071102;28;20981;-60
2024/01/13 00:30:08;;;;;;;19.67;13.98;;;2.90;99.90;;;;;;5070375;28;20391;-60
2024/01/13 00:32:34;;;;;;;20.58;14.77;;;2.90;99.90;;;;;;5042186;28;20421;-61
2024/01/13 00:35:00;;;;;;;20.50;14.73;;;2.90;99.90;;;;;;5066735;28;20404;-60
2024/01/13 00:37:26;;;;;;;25.07;16.13;;;3.00;99.90;;;;;;5073925;28;20402;-60
2024/01/13 00:39:51;;;;;;;23.92;16.00;;;2.90;99.90;;;;;;5071360;28;20436;-61
2024/01/13 00:42:17;;;;;;;22.95;15.48;;;2.90;99.90;;;;;;5069991;28;20403;-61
2024/01/13 00:44:43;;;;;;;22.00;14.93;;;2.90;99.90;;;;;;5075648;28;20918;-61
2024/01/13 00:47:08;;;;;;;23.65;16.02;;;2.90;99.90;;;;;;5057389;28;20399;-61
2024/01/13 00:49:34;;;;;;;24.35;15.52;;;2.90;99.90;;;;;;5066598;28;20495;-61
2024/01/13 00:52:00;;;;;;;24.97;15.50;;;2.90;99.90;;;;;;5071495;28;20682;-61
2024/01/13 00:54:25;;;;;;;22.33;15.00;;;2.90;99.90;;;;;;5074117;28;20402;-61
2024/01/13 00:56:53;;;;;;;24.30;15.82;;;2.90;99.90;;;;;;5065076;28;20415;-61
2024/01/13 00:59:19;;;;;;;24.80;15.52;;;2.90;99.90;;;;;;5056662;28;20406;-61
2024/01/13 01:01:45;;;;;;;23.70;15.33;;;2.90;99.90;;;;;;5077810;28;20955;-61
2024/01/13 01:04:10;;;;;;;27.47;15.50;;;2.90;99.90;;;;;;5079247;28;20399;-60
2024/01/13 01:06:36;;;;;;;25.88;15.80;;;2.90;99.90;;;;;;5057779;28;21055;-61
2024/01/13 01:09:02;;;;;;;22.50;15.13;;;2.80;99.90;;;;;;5076647;28;20399;-60
2024/01/13 01:11:27;;;;;;;29.50;16.43;;;2.80;99.90;;;;;;5059868;28;20412;-61
2024/01/13 01:13:53;;;;;;;22.43;14.67;;;2.90;99.90;;;;;;5080825;28;20407;-60
2024/01/13 01:16:19;;;;;;;23.08;13.90;;;2.80;99.90;;;;;;5076894;28;20783;-60
2024/01/13 01:18:45;;;;;;;24.58;14.55;;;2.80;99.90;;;;;;5078760;28;20407;-61
2024/01/13 01:21:12;;;;;;;23.02;14.18;;;2.80;99.90;;;;;;5079407;28;20426;-60
2024/01/13 01:23:38;;;;;;;25.08;14.57;;;2.80;99.90;;;;;;5078620;28;20441;-61
2024/01/13 01:26:04;;;;;;;25.23;14.80;;;2.80;99.90;;;;;;5071018;28;20450;-61
2024/01/13 01:28:29;;;;;;;21.80;13.37;;;2.80;99.90;;;;;;5073250;28;20403;-61
2024/01/13 01:30:55;;;;;;;22.40;13.40;;;2.90;99.90;;;;;;5078113;28;20411;-61
2024/01/13 01:33:21;;;;;;;18.30;11.25;;;2.90;99.90;;;;;;5081656;28;20490;-61
2024/01/13 01:35:47;;;;;;;20.08;12.20;;;2.80;99.90;;;;;;5076575;28;20439;-61
2024/01/13 01:38:12;;;;;;;18.05;11.82;;;2.80;99.90;;;;;;5056410;28;20435;-60
2024/01/13 01:40:40;;;;;;;20.10;11.50;;;2.80;99.90;;;;;;5070878;28;20407;-61
2024/01/13 01:43:06;;;;;;;18.17;11.00;;;2.80;99.90;;;;;;5070415;28;20420;-61
2024/01/13 01:45:32;;;;;;;17.98;11.23;;;2.80;99.90;;;;;;5067179;28;20512;-61
2024/01/13 01:48:01;;;;;;;17.95;10.68;;;2.70;99.90;;;;;;5066744;28;20412;-61
2024/01/13 01:50:27;;;;;;;17.77;10.68;;;2.80;99.90;;;;;;5063171;28;20474;-61
2024/01/13 01:52:53;;;;;;;17.42;10.20;;;2.80;99.90;;;;;;5062049;28;20416;-61
2024/01/13 01:55:18;;;;;;;15.10;10.05;;;2.80;99.90;;;;;;5068652;28;20503;-61
2024/01/13 01:57:44;;;;;;;15.52;9.52;;;2.80;99.90;;;;;;5053731;28;20432;-61
2024/01/13 02:00:10;;;;;;;14.53;9.80;;;2.90;99.90;;;;;;5069811;28;20498;-61
2024/01/13 02:02:36;;;;;;;16.77;9.90;;;2.80;99.90;;;;;;5078607;28;20410;-61
2024/01/13 02:05:02;;;;;;;20.73;11.13;;;2.90;99.90;;;;;;5073101;28;20417;-61
2024/01/13 02:07:29;;;;;;;19.13;10.75;;;2.90;99.90;;;;;;5077039;28;20493;-61
2024/01/13 02:09:55;;;;;;;19.55;10.57;;;2.90;99.90;;;;;;5069659;28;20529;-61
2024/01/13 02:12:21;;;;;;;20.38;11.65;;;2.90;99.90;;;;;;5075841;28;20981;-61
2024/01/13 02:14:46;;;;;;;22.30;12.20;;;2.90;99.90;;;;;;5078121;28;20502;-61
2024/01/13 02:17:12;;;;;;;19.60;11.95;;;2.90;99.90;;;;;;5063055;28;20413;-61
2024/01/13 02:19:38;;;;;;;22.10;12.17;;;2.90;99.90;;;;;;5072704;28;20423;-61
2024/01/13 02:22:04;;;;;;;23.80;13.05;;;2.90;99.90;;;;;;5072979;28;20419;-61
2024/01/13 02:24:30;;;;;;;21.70;12.23;;;2.90;99.90;;;;;;5071708;28;20756;-62
2024/01/13 02:26:55;;;;;;;19.97;11.93;;;2.90;99.90;;;;;;5068600;28;20396;-61
2024/01/13 02:29:21;;;;;;;23.85;13.45;;;2.90;99.90;;;;;;5077025;28;20518;-61
2024/01/13 02:31:47;;;;;;;27.05;14.43;;;2.90;99.90;;;;;;5075722;28;20895;-61
2024/01/13 02:34:12;;;;;;;25.33;13.50;;;2.90;99.90;;;;;;5073480;28;20423;-61
2024/01/13 02:36:38;;;;;;;22.40;13.27;;;2.90;99.90;;;;;;5069567;28;20443;-61
2024/01/13 02:39:04;;;;;;;22.50;13.15;;;2.90;99.90;;;;;;5043586;28;20657;-61
2024/01/13 02:41:30;;;;;;;23.63;12.88;;;2.90;99.90;;;;;;5056905;28;20486;-61
2024/01/13 02:43:56;;;;;;;19.20;12.00;;;2.90;99.90;;;;;;5051751;28;20412;-61
2024/01/13 02:46:21;;;;;;;20.53;12.70;;;2.90;99.90;;;;;;5070776;28;20424;-61
2024/01/13 02:48:52;;;;;;;22.20;12.63;;;2.90;99.90;;;;;;5071864;28;20452;-61
2024/01/13 02:51:18;;;;;;;22.10;12.52;;;2.90;99.90;;;;;;5075474;28;20407;-61
2024/01/13 02:53:44;;;;;;;20.55;12.25;;;2.90;99.90;;;;;;5067737;28;20472;-61
2024/01/13 02:56:10;;;;;;;21.03;12.37;;;3.00;99.90;;;;;;5055139;28;20428;-61
2024/01/13 02:58:35;;;;;;;18.40;11.73;;;3.00;99.90;;;;;;5080239;28;20914;-61
2024/01/13 03:01:06;;;;;;;19.58;11.32;;;3.00;99.90;;;;;;5080600;28;20402;-61
2024/01/13 03:03:36;;;;;;;19.13;11.75;;;3.00;99.90;;;;;;5071056;28;20464;-61
2024/01/13 03:06:03;;;;;;;14.73;10.47;;;3.00;99.90;;;;;;5072326;28;20496;-61
2024/01/13 03:08:29;;;;;;;15.23;10.68;;;3.00;99.90;;;;;;5053362;28;20460;-61
2024/01/13 03:10:55;;;;;;;16.40;11.00;;;3.00;99.90;;;;;;5072170;28;20556;-61
2024/01/13 03:13:21;;;;;;;17.92;11.50;;;3.00;99.90;;;;;;5071533;28;20516;-61
2024/01/13 03:15:46;;;;;;;19.33;12.27;;;3.10;99.90;;;;;;5076422;28;20430;-61
2024/01/13 03:18:12;;;;;;;16.90;11.50;;;3.10;99.90;;;;;;5069154;28;20419;-61
2024/01/13 03:20:38;;;;;;;19.33;11.80;;;3.10;99.90;;;;;;5040921;28;20402;-61
2024/01/13 03:23:04;;;;;;;19.00;11.90;;;3.10;99.90;;;;;;5074855;28;20906;-61
2024/01/13 03:25:29;;;;;;;17.60;12.00;;;3.10;99.90;;;;;;5084629;28;20447;-61
2024/01/13 03:27:55;;;;;;;20.17;12.30;;;3.10;99.90;;;;;;5074094;28;20479;-61
2024/01/13 03:30:21;;;;;;;18.10;12.80;;;3.10;99.90;;;;;;5058803;28;20400;-61
2024/01/13 03:32:47;;;;;;;20.53;13.20;;;3.10;99.90;;;;;;5068704;28;20411;-61
2024/01/13 03:35:12;;;;;;;19.70;13.52;;;3.10;99.90;;;;;;5072105;28;21469;-61
2024/01/13 03:37:38;;;;;;;20.73;13.77;;;3.10;99.90;;;;;;5075602;28;20396;-61
2024/01/13 03:40:04;;;;;;;20.03;13.13;;;3.10;99.90;;;;;;5069937;28;20939;-61
2024/01/13 03:42:30;;;;;;;22.50;13.63;;;3.10;99.90;;;;;;5069462;28;20462;-61
2024/01/13 03:44:56;;;;;;;21.20;13.40;;;3.00;99.90;;;;;;5054761;28;20903;-61
2024/01/13 03:47:22;;;;;;;21.23;13.70;;;3.10;99.90;;;;;;5074222;28;20382;-61
2024/01/13 03:49:48;;;;;;;20.60;13.32;;;3.10;99.90;;;;;;5075411;28;20483;-61
2024/01/13 03:52:14;;;;;;;19.10;12.60;;;3.10;99.90;;;;;;5068595;28;20427;-61
2024/01/13 03:54:41;;;;;;;20.67;12.80;;;3.00;99.90;;;;;;5073505;28;20407;-61
2024/01/13 03:57:07;;;;;;;17.75;12.13;;;3.10;99.90;;;;;;5081213;28;20420;-61
2024/01/13 03:59:32;;;;;;;18.10;12.15;;;3.10;99.90;;;;;;5070910;28;20411;-61
2024/01/13 04:01:58;;;;;;;17.85;12.38;;;3.00;99.90;;;;;;5068994;28;20419;-61
2024/01/13 04:04:24;;;;;;;18.90;12.33;;;3.00;99.90;;;;;;5069623;28;20406;-61
2024/01/13 04:06:50;;;;;;;17.85;11.90;;;3.00;99.90;;;;;;5067962;28;20912;-61
2024/01/13 04:09:16;;;;;;;20.23;12.10;;;3.00;99.90;;;;;;5068371;28;20400;-61
2024/01/13 04:11:41;;;;;;;19.17;11.90;;;3.10;99.90;;;;;;5067657;28;20912;-61
2024/01/13 04:14:07;;;;;;;15.40;10.98;;;3.00;99.90;;;;;;5066509;28;20473;-61
2024/01/13 04:16:33;;;;;;;17.17;11.30;;;3.10;99.90;;;;;;5051605;28;20407;-61
2024/01/13 04:18:58;;;;;;;17.07;10.97;;;3.10;99.90;;;;;;5067761;28;20426;-61
2024/01/13 04:21:24;;;;;;;14.65;10.50;;;3.10;99.90;;;;;;5067763;28;21139;-61
2024/01/13 04:23:53;;;;;;;15.63;10.77;;;3.10;99.90;;;;;;5067665;28;20404;-61
2024/01/13 04:26:21;;;;;;;15.13;10.23;;;3.10;99.90;;;;;;5059836;28;20418;-62
2024/01/13 04:28:47;;;;;;;14.57;10.00;;;3.10;99.90;;;;;;5068286;28;20399;-61
2024/01/13 04:31:12;;;;;;;16.30;10.45;;;3.10;99.90;;;;;;5038333;28;20416;-61
2024/01/13 04:33:38;;;;;;;15.48;10.10;;;3.20;99.90;;;;;;5076404;28;20486;-61
2024/01/13 04:36:04;;;;;;;14.50;10.15;;;3.10;99.90;;;;;;5068501;28;20471;-61
2024/01/13 04:38:30;;;;;;;14.98;10.30;;;3.10;99.90;;;;;;5067475;28;21135;-61
2024/01/13 04:40:56;;;;;;;18.52;11.10;;;3.10;99.90;;;;;;5067532;28;20408;-61
2024/01/13 04:43:21;;;;;;;15.27;10.73;;;3.10;99.90;;;;;;5051094;28;20750;-61
2024/01/13 04:45:47;;;;;;;17.27;10.95;;;3.10;99.90;;;;;;5069017;28;20894;-61
2024/01/13 04:48:15;;;;;;;15.07;10.18;;;3.10;99.90;;;;;;5067593;28;20526;-61
2024/01/13 04:50:41;;;;;;;15.80;10.82;;;3.10;99.90;;;;;;5065089;28;20818;-61
2024/01/13 04:53:07;;;;;;;16.15;10.38;;;3.10;99.90;;;;;;5069145;28;20486;-61
2024/01/13 04:55:32;;;;;;;17.97;11.07;;;3.00;99.90;;;;;;5073993;28;20391;-61
2024/01/13 04:57:58;;;;;;;16.67;11.07;;;3.10;99.90;;;;;;5061588;28;20896;-61
2024/01/13 05:00:24;;;;;;;18.48;11.52;;;3.00;99.90;;;;;;5074097;28;20424;-61
2024/01/13 05:02:49;;;;;;;16.77;11.30;;;3.00;99.90;;;;;;5069234;28;20394;-61
2024/01/13 05:05:15;;;;;;;17.27;10.87;;;3.10;99.90;;;;;;5037073;28;21021;-61
2024/01/13 05:07:41;;;;;;;15.87;10.93;;;3.00;99.90;;;;;;5070647;28;20505;-62
2024/01/13 05:10:07;;;;;;;16.17;10.65;;;3.00;99.90;;;;;;5068105;28;20407;-61
2024/01/13 05:12:33;;;;;;;17.35;11.30;;;3.00;99.90;;;;;;5067634;28;20400;-62
2024/01/13 05:14:59;;;;;;;18.90;11.63;;;3.00;99.90;;;;;;5067645;28;20852;-61
2024/01/13 05:17:24;;;;;;;18.48;11.73;;;3.00;99.90;;;;;;5069048;28;20403;-61
2024/01/13 05:19:50;;;;;;;16.90;11.10;;;3.00;99.90;;;;;;5050404;28;20428;-61
2024/01/13 05:22:16;;;;;;;16.90;11.75;;;3.00;99.90;;;;;;5068762;28;20427;-61
2024/01/13 05:24:42;;;;;;;18.90;11.75;;;3.00;99.90;;;;;;5067033;28;20769;-61
2024/01/13 05:27:08;;;;;;;17.67;11.45;;;3.10;99.90;;;;;;5067395;28;20847;-61
2024/01/13 05:29:33;;;;;;;18.67;11.48;;;3.10;99.90;;;;;;5067113;28;20490;-61
2024/01/13 05:31:59;;;;;;;17.60;10.93;;;3.10;99.90;;;;;;5050507;28;20411;-61
2024/01/13 05:34:25;;;;;;;17.10;11.30;;;3.10;99.90;;;;;;5066054;28;20664;-61
2024/01/13 05:36:51;;;;;;;16.73;11.03;;;3.10;99.90;;;;;;5066712;28;20455;-61
2024/01/13 05:39:16;;;;;;;16.60;10.48;;;3.10;99.90;;;;;;5079313;28;20459;-61
2024/01/13 05:41:42;;;;;;;17.58;11.27;;;3.10;99.90;;;;;;5072191;28;20411;-61
2024/01/13 05:44:08;;;;;;;19.40;11.17;;;3.10;99.90;;;;;;5083586;28;20394;-62
2024/01/13 05:46:33;;;;;;;16.98;9.75;;;3.10;99.90;;;;;;5086076;28;20756;-61
2024/01/13 05:49:03;;;;;;;15.10;10.25;;;3.10;99.90;;;;;;5080564;28;20438;-62
2024/01/13 05:51:29;;;;;;;14.60;9.63;;;3.00;99.90;;;;;;5082337;28;20406;-61
2024/01/13 05:53:55;;;;;;;12.57;8.65;;;3.00;99.90;;;;;;5076892;28;20778;-61
2024/01/13 05:56:20;;;;;;;12.13;8.70;;;3.00;99.90;;;;;;5070568;28;20435;-61
2024/01/13 05:58:46;;;;;;;11.73;8.47;;;2.90;99.90;;;;;;5083025;28;20480;-61
2024/01/13 06:01:12;;;;;;;11.17;7.93;;;2.90;99.90;;;;;;5084092;28;20400;-61
2024/01/13 06:03:37;;;;;;;12.80;8.18;;;2.90;99.90;;;;;;5080364;28;20422;-61
2024/01/13 06:06:03;;;;;;;11.30;8.02;;;2.90;99.90;;;;;;5084086;28;20426;-61
2024/01/13 06:08:29;;;;;;;11.00;7.32;;;2.90;99.90;;;;;;5077653;28;20391;-61
2024/01/13 06:10:55;;;;;;;10.18;7.22;;;2.80;99.90;;;;;;5077646;28;20847;-61
2024/01/13 06:13:20;;;;;;;13.93;7.57;;;2.90;99.90;;;;;;5072512;28;20768;-61
2024/01/13 06:15:46;;;;;;;10.82;6.95;;;2.90;99.90;;;;;;5077794;28;20435;-61
2024/01/13 06:18:12;;;;;;;10.65;7.30;;;2.90;99.90;;;;;;5080718;28;20399;-61
2024/01/13 06:20:38;;;;;;;12.02;7.72;;;2.90;99.90;;;;;;5082637;28;20423;-61
2024/01/13 06:23:05;;;;;;;12.40;7.83;;;2.90;99.90;;;;;;5057115;28;20396;-61
2024/01/13 06:25:32;;;;;;;12.77;7.83;;;2.90;99.90;;;;;;5060006;28;20407;-61
2024/01/13 06:27:57;;;;;;;12.55;7.00;;;2.90;99.90;;;;;;5086706;28;20499;-61
2024/01/13 06:30:23;;;;;;;13.17;7.20;;;2.90;99.90;;;;;;5080441;28;20780;-61
2024/01/13 06:32:49;;;;;;;13.23;7.45;;;2.90;99.90;;;;;;5076781;28;20457;-61
2024/01/13 06:35:14;;;;;;;10.98;6.80;;;2.90;99.90;;;;;;5080022;28;20414;-61
2024/01/13 06:37:40;;;;;;;12.20;7.50;;;2.90;99.90;;;;;;5075803;28;20399;-61
2024/01/13 06:40:08;;;;;;;9.45;6.43;;;2.90;99.90;;;;;;5059116;28;20470;-61
2024/01/13 06:42:34;;;;;;;9.77;6.22;;;2.80;99.90;;;;;;5080321;28;20399;-61
2024/01/13 06:45:00;;;;;;;10.25;6.18;;;2.90;99.90;;;;;;5078227;28;20896;-61
2024/01/13 06:47:26;;;;;;;11.52;6.95;;;2.90;99.90;;;;;;5083680;28;20548;-61
2024/01/13 06:49:51;;;;;;;9.15;6.60;;;2.90;99.90;;;;;;5078811;28;20402;-62
2024/01/13 06:52:17;;;;;;;10.37;6.40;;;2.80;99.90;;;;;;5076471;28;20428;-61
2024/01/13 06:54:43;;;;;;;9.18;6.70;;;2.90;99.90;;;;;;5080198;28;20408;-61
2024/01/13 06:57:08;;;;;;;11.40;6.80;;;2.90;99.90;;;;;;5078239;28;20395;-62
2024/01/13 06:59:34;;;;;;;12.50;7.30;;;2.90;99.90;;;;;;5069738;28;20407;-61
2024/01/13 07:02:00;;;;;;;12.03;7.30;;;2.90;99.90;;;;;;5081599;28;20402;-62
2024/01/13 07:04:27;;;;;;;13.00;8.27;;;2.90;99.90;;;;;;5078861;28;20789;-61
2024/01/13 07:06:53;;;;;;;13.60;8.47;;;3.00;99.90;;;;;;5084034;28;20434;-61
2024/01/13 07:09:19;;;;;;;14.03;8.53;;;2.90;99.90;;;;;;5081198;28;20867;-61
2024/01/13 07:11:48;;;;;;;14.82;9.23;;;2.80;99.90;;;;;;5075376;28;20409;-61
2024/01/13 07:14:14;;;;;;;15.25;9.52;;;2.90;99.90;;;;;;5051907;28;20402;-61
2024/01/13 07:16:40;;;;;;;17.17;9.90;;;2.90;99.90;;;;;;5085712;28;20795;-61
2024/01/13 07:19:07;;;;;;;15.67;10.07;;;2.90;99.90;;;;;;5077362;28;20420;-61
2024/01/13 07:21:33;;;;;;;15.90;9.55;;;2.90;99.90;;;;;;5082077;28;20949;-61
2024/01/13 07:23:59;;;;;;;16.83;9.87;;;2.80;99.90;;;;;;5058922;28;20457;-61
2024/01/13 07:26:25;;;;;;;18.40;10.87;;;2.80;99.90;;;;;;5081314;28;20910;-61
2024/01/13 07:28:50;;;;;;;20.80;11.10;;;2.90;99.90;;;;;;5061558;28;20484;-61
2024/01/13 07:31:16;;;;;;;17.55;10.60;;;2.90;99.90;;;;;;5076650;28;20420;-61
2024/01/13 07:33:42;;;;;;;19.33;11.48;;;2.90;99.90;;;;;;5078981;28;20398;-61
2024/01/13 07:36:08;;;;;;;20.98;11.55;;;2.90;99.90;;;;;;5062420;28;20404;-61
2024/01/13 07:38:33;;;;;;;19.40;11.60;;;2.90;99.90;;;;;;5060369;28;20407;-61
2024/01/13 07:40:59;;;;;;;15.77;10.20;;;2.90;99.90;;;;;;5053510;28;20420;-61
2024/01/13 07:43:25;;;;;;;17.25;10.93;;;3.00;99.90;;;;;;5083662;28;20470;-61
2024/01/13 07:45:51;;;;;;;23.30;12.27;;;3.00;99.90;;;;;;5082276;28;20396;-61
2024/01/13 07:48:16;;;;;;;22.60;12.63;;;3.00;99.90;;;;;;5057134;28;21011;-61
2024/01/13 07:50:42;;;;;;;19.50;11.75;;;3.00;99.90;;;;;;5077881;28;20417;-62
2024/01/13 07:53:08;;;;;;;19.98;11.43;;;3.10;99.90;;;;;;5058462;28;20520;-61
2024/01/13 07:55:34;;;;;;;20.65;10.90;;;3.10;99.90;;;;;;5079080;28;20481;-61
2024/01/13 07:57:59;;;;;;;24.27;11.90;;;3.10;99.90;;;;;;5075902;28;20411;-61
2024/01/13 08:00:27;;;;;;;19.23;11.70;;;3.10;99.90;;;;;;5081969;28;20417;-61
2024/01/13 08:02:55;;;;;;;19.90;11.70;;;3.10;99.90;;;;;;5079769;28;20398;-61
2024/01/13 08:05:21;;;;;;;19.40;10.93;;;3.10;99.90;;;;;;5082861;28;20991;-61
2024/01/13 08:07:47;;;;;;;18.50;10.65;;;3.10;99.90;;;;;;5081401;28;20906;-61
2024/01/13 08:10:15;;;;;;;14.88;9.63;;;3.10;99.90;;;;;;5080167;28;20576;-61
2024/01/13 08:12:41;;;;;;;13.40;8.30;;;3.10;99.90;;;;;;5077325;28;20415;-61
2024/01/13 08:15:07;;;;;;;12.20;8.63;;;3.10;99.90;;;;;;5075293;28;20414;-61
2024/01/13 08:17:33;;;;;;;11.50;7.93;;;3.10;99.90;;;;;;5075742;28;20413;-61
2024/01/13 08:19:58;;;;;;;12.88;8.50;;;3.10;99.90;;;;;;5076827;28;20547;-61
2024/01/13 08:22:24;;;;;;;10.52;7.47;;;3.10;99.90;;;;;;5082422;28;20467;-61
2024/01/13 08:24:50;;;;;;;9.37;6.70;;;3.20;99.90;;;;;;5078690;28;20392;-61
2024/01/13 08:27:15;;;;;;;8.30;6.45;;;3.20;99.90;;;;;;5082073;28;20775;-61
2024/01/13 08:29:41;;;;;;;8.85;6.40;;;3.20;99.90;;;;;;5079258;28;20398;-61
2024/01/13 08:32:07;;;;;;;7.37;5.60;;;3.20;99.90;;;;;;5071531;28;20406;-61
2024/01/13 08:34:33;;;;;;;7.53;5.83;;;3.10;99.90;;;;;;5076136;28;20898;-61
2024/01/13 08:36:58;;;;;;;8.43;6.47;;;3.20;99.90;;;;;;5073345;28;20416;-61
2024/01/13 08:39:24;;;;;;;8.85;5.97;;;3.20;99.90;;;;;;5075924;28;20417;-61
2024/01/13 08:41:50;;;;;;;7.97;6.10;;;3.20;99.90;;;;;;5075329;28;20400;-61
2024/01/13 08:44:16;;;;;;;8.33;6.30;;;3.20;99.90;;;;;;5075162;28;20394;-61
2024/01/13 08:46:41;;;;;;;9.75;7.00;;;3.20;99.90;;;;;;5069323;28;20423;-61
2024/01/13 08:49:08;;;;;;;13.73;9.80;;;3.20;99.90;;;;;;5074205;28;20425;-62
2024/01/13 08:51:34;;;;;;;9.50;6.75;;;3.30;99.90;;;;;;5071979;28;20465;-61
2024/01/13 08:54:00;;;;;;;11.23;7.18;;;3.20;99.90;;;;;;5073520;28;20842;-61
2024/01/13 08:56:26;;;;;;;12.00;7.63;;;3.30;99.90;;;;;;5077185;28;20432;-61
2024/01/13 08:58:51;;;;;;;11.97;8.23;;;3.30;99.90;;;;;;5058302;28;20925;-61
2024/01/13 09:01:18;;;;;;;13.50;9.25;;;3.30;99.90;;;;;;5070919;28;20438;-61
2024/01/13 09:03:45;;;;;;;15.03;9.73;;;3.30;99.90;;;;;;5069555;28;20427;-61
2024/01/13 09:06:11;;;;;;;14.38;10.13;;;3.40;99.90;;;;;;5079284;28;20917;-61
2024/01/13 09:08:38;;;;;;;17.52;11.82;;;3.30;99.90;;;;;;5079524;28;20926;-61
2024/01/13 09:11:05;;;;;;;19.45;11.60;;;3.40;99.90;;;;;;5057952;28;20416;-61
2024/01/13 09:13:30;;;;;;;17.67;12.00;;;3.40;99.90;;;;;;5076620;28;20436;-61
2024/01/13 09:15:56;;;;;;;19.92;13.25;;;3.40;99.90;;;;;;5071424;28;20411;-61
2024/01/13 09:18:22;;;;;;;22.65;14.27;;;3.40;99.90;;;;;;5077166;28;20397;-61
2024/01/13 09:20:47;;;;;;;24.67;15.57;;;3.40;99.90;;;;;;5040594;28;20939;-61
2024/01/13 09:23:13;;;;;;;28.02;18.23;;;3.40;99.90;;;;;;5075966;28;20396;-61
2024/01/13 09:25:39;;;;;;;34.65;21.60;;;3.40;99.90;;;;;;5053812;28;20821;-61
2024/01/13 09:28:04;;;;;;;36.03;22.00;;;3.50;99.90;;;;;;5071255;28;20399;-61
2024/01/13 09:30:30;;;;;;;38.38;23.35;;;3.40;99.90;;;;;;5071777;28;20419;-61
2024/01/13 09:32:56;;;;;;;38.60;24.52;;;3.40;99.90;;;;;;5072924;28;20924;-61
2024/01/13 09:35:21;;;;;;;39.53;25.50;;;3.40;99.90;;;;;;5070894;28;20403;-62
2024/01/13 09:37:47;;;;;;;44.03;26.70;;;3.50;99.90;;;;;;5071514;28;20413;-61
2024/01/13 09:40:16;;;;;;;46.05;28.80;;;3.50;99.90;;;;;;5072863;28;20455;-61
2024/01/13 09:43:09;;;;;;;51.30;29.92;;;3.50;99.90;;;;;;5081201;28;20391;-61
2024/01/13 09:45:38;;;;;;;57.60;32.80;;;3.50;99.90;;;;;;5070257;28;20445;-61
2024/01/13 09:48:08;;;;;;;54.78;32.90;;;3.50;99.90;;;;;;5073834;28;20427;-61
2024/01/13 09:50:35;;;;;;;50.58;31.35;;;3.60;99.90;;;;;;5073763;28;20408;-61
2024/01/13 09:53:06;;;;;;;54.13;33.20;;;3.50;99.90;;;;;;5072128;28;20409;-61
2024/01/13 09:55:33;;;;;;;56.47;34.80;;;3.50;99.90;;;;;;5074052;28;20423;-61
2024/01/13 09:57:59;;;;;;;58.40;34.83;;;3.40;99.90;;;;;;5063702;28;20464;-61
2024/01/13 10:00:30;;;;;;;59.10;35.65;;;3.50;99.90;;;;;;5070273;28;20416;-62
2024/01/13 10:02:57;;;;;;;62.20;38.22;;;3.50;99.90;;;;;;5070772;28;20396;-61
2024/01/13 10:05:23;;;;;;;61.25;38.75;;;3.50;99.90;;;;;;5071046;28;20454;-61
2024/01/13 10:07:52;;;;;;;64.60;38.28;;;3.50;99.90;;;;;;5072124;28;20419;-61
2024/01/13 10:10:19;;;;;;;65.80;39.50;;;3.50;99.90;;;;;;5071870;28;20418;-61
2024/01/13 10:12:45;;;;;;;67.70;40.55;;;3.60;99.90;;;;;;5071578;28;20913;-61
2024/01/13 10:15:15;;;;;;;72.95;41.50;;;3.60;99.90;;;;;;5069102;28;20447;-61
2024/01/13 10:17:41;;;;;;;67.75;42.53;;;3.60;99.90;;;;;;5058176;28;20396;-61
2024/01/13 10:20:13;;;;;;;71.53;44.58;;;3.50;99.90;;;;;;5046442;28;20482;-61
2024/01/13 10:22:39;;;;;;;71.35;43.13;;;3.50;99.90;;;;;;5061976;28;20908;-61
2024/01/13 10:25:07;;;;;;;79.45;46.90;;;3.50;99.90;;;;;;5051812;28;20454;-61
2024/01/13 10:27:33;;;;;;;77.82;47.90;;;3.50;99.90;;;;;;5064787;28;20422;-61
2024/01/13 10:29:59;;;;;;;77.50;47.25;;;3.60;99.90;;;;;;5068472;28;20423;-61
2024/01/13 10:32:27;;;;;;;76.40;47.17;;;3.60;99.90;;;;;;5069512;28;20429;-64
2024/01/13 10:34:53;;;;;;;76.13;47.92;;;3.60;99.90;;;;;;5068934;28;21244;-64
2024/01/13 10:37:19;;;;;;;73.70;45.88;;;3.50;99.90;;;;;;5063368;28;20433;-64
2024/01/13 10:39:45;;;;;;;73.22;48.30;;;3.50;99.90;;;;;;5047701;28;20425;-64
2024/01/13 10:42:15;;;;;;;72.68;46.03;;;3.60;99.90;;;;;;5068761;28;20427;-64
2024/01/13 10:44:43;;;;;;;78.03;48.27;;;3.60;99.90;;;;;;5069255;28;20469;-64
2024/01/13 10:47:14;;;;;;;76.50;47.70;;;3.50;99.90;;;;;;5075798;28;20440;-64
2024/01/13 10:49:45;;;;;;;81.90;48.90;;;3.60;99.90;;;;;;5077755;28;20491;-64
2024/01/13 10:52:15;;;;;;;86.32;50.08;;;3.60;99.90;;;;;;5080376;28;20402;-64
2024/01/13 10:54:42;;;;;;;78.05;48.70;;;3.60;99.90;;;;;;5075989;28;20510;-64
2024/01/13 10:57:12;;;;;;;76.00;48.97;;;3.60;99.90;;;;;;5060300;28;20481;-64
2024/01/13 10:59:39;;;;;;;75.67;48.73;;;3.60;99.90;;;;;;5076568;28;21016;-64
2024/01/13 11:02:10;;;;;;;79.18;48.40;;;3.60;99.90;;;;;;5078388;28;20417;-64
2024/01/13 11:04:36;;;;;;;69.40;46.60;;;3.60;99.90;;;;;;5068008;28;20896;-64
2024/01/13 11:07:02;;;;;;;74.93;48.37;;;3.50;99.90;;;;;;5079243;28;20411;-64
2024/01/13 11:09:29;;;;;;;71.47;47.43;;;3.50;99.90;;;;;;5082777;28;20497;-64
2024/01/13 11:12:03;;;;;;;71.57;46.70;;;3.50;99.90;;;;;;5074663;28;20396;-64
2024/01/13 11:14:36;;;;;;;70.88;47.13;;;3.50;99.90;;;;;;5072224;28;20415;-64
2024/01/13 11:17:02;;;;;;;66.63;44.92;;;3.60;99.90;;;;;;5058715;28;21890;-64
2024/01/13 11:19:32;;;;;;;78.97;50.40;;;3.50;99.90;;;;;;5074918;28;20426;-64
2024/01/13 11:21:58;;;;;;;78.97;49.70;;;3.60;99.90;;;;;;5066896;28;20420;-64
2024/01/13 11:24:26;;;;;;;79.72;49.65;;;3.60;99.90;;;;;;5070327;28;20866;-64
2024/01/13 11:26:54;;;;;;;81.93;50.35;;;3.60;99.90;;;;;;5068372;28;20423;-64
2024/01/13 11:29:27;;;;;;;90.03;53.00;;;3.60;99.90;;;;;;5069443;28;20395;-64
2024/01/13 11:31:59;;;;;;;83.47;50.95;;;3.70;99.90;;;;;;5066512;28;20421;-64
2024/01/13 11:34:27;;;;;;;83.75;50.78;;;3.60;99.90;;;;;;5068883;28;20432;-64
2024/01/13 11:36:56;;;;;;;81.78;49.85;;;3.60;99.90;;;;;;5066981;28;20402;-64
2024/01/13 11:39:23;;;;;;;92.00;53.55;;;3.60;99.90;;;;;;5070666;28;20432;-64
2024/01/13 11:41:50;;;;;;;94.43;52.38;;;3.60;99.90;;;;;;5066286;28;20419;-64
2024/01/13 11:44:34;;;;;;;82.50;51.90;;;3.60;99.90;;;;;;5068904;28;20405;-64
2024/01/13 11:47:07;;;;;;;84.00;51.47;;;3.60;99.90;;;;;;5067752;28;20896;-64
2024/01/13 11:49:45;;;;;;;87.38;52.28;;;3.70;99.90;;;;;;5065508;28;20439;-64
2024/01/13 11:52:15;;;;;;;84.65;51.35;;;3.70;99.90;;;;;;5066989;28;20498;-64
2024/01/13 11:54:43;;;;;;;87.53;53.15;;;3.70;99.90;;;;;;5068219;28;20407;-64
2024/01/13 11:57:10;;;;;;;91.20;53.17;;;3.70;99.90;;;;;;5067409;28;20462;-64
2024/01/13 11:59:36;;;;;;;89.10;52.90;;;3.70;99.90;;;;;;5072263;28;20431;-64
2024/01/13 12:02:02;;;;;;;84.10;51.72;;;3.70;99.90;;;;;;5076737;28;20443;-64
2024/01/13 12:04:29;;;;;;;89.45;53.40;;;3.70;99.90;;;;;;5070576;28;20462;-64
2024/01/13 12:06:55;;;;;;;90.10;52.40;;;3.70;99.90;;;;;;5068126;28;20400;-64
2024/01/13 12:09:23;;;;;;;90.40;54.15;;;3.60;99.90;;;;;;5063952;28;20809;-64
2024/01/13 12:11:59;;;;;;;95.17;56.27;;;3.60;99.90;;;;;;5065340;28;20399;-64
2024/01/13 12:14:29;;;;;;;84.78;53.03;;;3.70;99.90;;;;;;5064676;28;20420;-64
2024/01/13 12:16:56;;;;;;;95.05;54.63;;;3.70;99.90;;;;;;5072260;28;20906;-64
2024/01/13 12:19:25;;;;;;;93.05;56.50;;;3.70;99.90;;;;;;5074662;28;20525;-64
2024/01/13 12:21:51;;;;;;;94.72;56.03;;;3.70;99.90;;;;;;5070698;28;20410;-64
2024/01/13 12:24:16;;;;;;;93.63;55.15;;;3.70;99.90;;;;;;5071159;28;20420;-64
2024/01/13 12:26:43;;;;;;;100.27;57.93;;;3.70;99.90;;;;;;5077879;28;20407;-64
2024/01/13 12:29:10;;;;;;;98.22;57.13;;;3.70;99.90;;;;;;5072675;28;20416;-64
2024/01/13 12:31:37;;;;;;;96.22;56.58;;;3.70;99.90;;;;;;5073824;28;20418;-64
2024/01/13 12:34:13;;;;;;;95.82;54.55;;;3.80;99.90;;;;;;5073551;28;20416;-64